createdAt,value
2023-02-25T00:01:57.884Z,2.70
2023-02-25T00:04:33.400Z,2.67
2023-02-25T00:07:01.727Z,2.61
2023-02-25T00:09:30.238Z,2.66
2023-02-25T00:11:58.355Z,2.64
2023-02-25T00:14:26.760Z,2.56
2023-02-25T00:16:56.164Z,2.61
2023-02-25T00:19:24.517Z,2.50
2023-02-25T00:21:54.000Z,2.49
2023-02-25T00:24:22.114Z,2.48
2023-02-25T00:26:50.417Z,2.45
2023-02-25T00:29:18.573Z,2.41
2023-02-25T00:31:49.901Z,2.41
2023-02-25T00:34:18.280Z,2.41
2023-02-25T00:36:46.916Z,2.47
2023-02-25T00:39:19.308Z,2.45
2023-02-25T00:41:47.462Z,2.43
2023-02-25T00:44:15.788Z,2.43
2023-02-25T00:46:43.942Z,2.44
2023-02-25T00:49:16.704Z,2.43
2023-02-25T00:51:49.359Z,2.45
2023-02-25T00:54:21.560Z,2.44
2023-02-25T00:56:49.668Z,2.46
2023-02-25T00:59:17.692Z,2.45
2023-02-25T01:01:46.182Z,2.48
2023-02-25T01:04:14.546Z,2.47
2023-02-25T01:06:42.819Z,2.47
2023-02-25T01:09:14.016Z,2.42
2023-02-25T01:11:45.288Z,2.46
2023-02-25T01:14:15.982Z,2.46
2023-02-25T01:16:45.931Z,2.42
2023-02-25T01:19:16.265Z,2.43
2023-02-25T01:21:46.220Z,2.36
2023-02-25T01:24:16.327Z,2.36
2023-02-25T01:26:47.222Z,2.36
2023-02-25T01:29:17.523Z,2.32
2023-02-25T01:31:46.545Z,2.30
2023-02-25T01:34:17.314Z,2.28
2023-02-25T01:36:46.209Z,2.24
2023-02-25T01:39:16.030Z,2.23
2023-02-25T01:41:48.813Z,2.22
2023-02-25T01:44:19.298Z,2.26
2023-02-25T01:46:48.752Z,2.23
2023-02-25T01:49:21.384Z,2.25
2023-02-25T01:51:52.846Z,2.24
2023-02-25T01:54:22.141Z,2.22
2023-02-25T01:56:55.580Z,2.22
2023-02-25T01:59:27.760Z,2.22
2023-02-25T02:01:56.760Z,2.22
2023-02-25T02:04:27.484Z,2.22
2023-02-25T02:06:56.655Z,2.20
2023-02-25T02:09:27.726Z,2.25
2023-02-25T02:12:01.078Z,2.26
2023-02-25T02:14:32.434Z,2.27
2023-02-25T02:17:17.264Z,2.32
2023-02-25T02:20:13.403Z,2.33
2023-02-25T02:22:58.054Z,2.27
2023-02-25T02:26:04.404Z,2.29
2023-02-25T02:29:07.688Z,2.30
2023-02-25T02:31:49.440Z,2.32
2023-02-25T02:34:30.439Z,2.32
2023-02-25T02:37:10.270Z,2.36
2023-02-25T02:39:50.356Z,2.41
2023-02-25T02:42:28.379Z,2.40
2023-02-25T02:45:03.738Z,2.43
2023-02-25T02:47:36.886Z,2.43
2023-02-25T02:50:08.827Z,2.47
2023-02-25T02:52:40.747Z,2.43
2023-02-25T02:55:22.606Z,2.49
2023-02-25T02:57:53.875Z,2.52
2023-02-25T03:00:25.985Z,2.59
2023-02-25T03:02:59.416Z,2.54
2023-02-25T03:05:30.355Z,2.52
2023-02-25T03:08:07.774Z,2.53
2023-02-25T03:10:36.235Z,2.61
2023-02-25T03:13:04.376Z,2.57
2023-02-25T03:15:34.354Z,2.63
2023-02-25T03:18:08.067Z,2.63
2023-02-25T03:20:41.826Z,2.61
2023-02-25T03:23:13.524Z,2.61
2023-02-25T03:25:47.923Z,2.64
2023-02-25T03:28:25.570Z,2.65
2023-02-25T03:30:59.858Z,2.68
2023-02-25T03:33:33.856Z,2.66
2023-02-25T03:36:09.153Z,2.71
2023-02-25T03:38:42.261Z,2.72
2023-02-25T03:41:12.689Z,2.70
2023-02-25T03:43:45.836Z,2.71
2023-02-25T03:46:16.136Z,2.68
2023-02-25T03:48:46.316Z,2.65
2023-02-25T03:51:22.792Z,2.64
2023-02-25T03:53:51.321Z,2.62
2023-02-25T03:56:22.620Z,2.56
2023-02-25T03:58:50.861Z,2.58
2023-02-25T04:01:24.080Z,2.51
2023-02-25T04:03:53.500Z,2.52
2023-02-25T04:06:23.150Z,2.48
2023-02-25T04:08:51.440Z,2.47
2023-02-25T04:11:19.500Z,2.47
2023-02-25T04:13:47.561Z,2.47
2023-02-25T04:16:15.702Z,2.47
2023-02-25T04:18:43.841Z,2.48
2023-02-25T04:21:27.487Z,2.45
2023-02-25T04:23:55.598Z,2.42
2023-02-25T04:26:24.037Z,2.42
2023-02-25T04:28:52.267Z,2.40
2023-02-25T04:31:20.837Z,2.39
2023-02-25T04:33:50.094Z,2.38
2023-02-25T04:36:28.065Z,2.42
2023-02-25T04:38:56.918Z,2.37
2023-02-25T04:41:26.060Z,2.38
2023-02-25T04:43:54.076Z,2.37
2023-02-25T04:46:22.567Z,2.38
2023-02-25T04:48:50.829Z,2.37
2023-02-25T04:51:19.232Z,2.39
2023-02-25T04:53:51.295Z,2.39
2023-02-25T04:56:19.591Z,2.40
2023-02-25T04:58:48.234Z,2.41
2023-02-25T05:01:16.494Z,2.45
2023-02-25T05:03:44.560Z,2.40
2023-02-25T05:06:12.641Z,2.40
2023-02-25T05:08:41.039Z,2.38
2023-02-25T05:11:10.490Z,2.40
2023-02-25T05:13:38.573Z,2.40
2023-02-25T05:16:08.729Z,2.40
2023-02-25T05:18:38.295Z,2.40
2023-02-25T05:21:12.230Z,2.36
2023-02-25T05:23:40.419Z,2.32
2023-02-25T05:26:10.573Z,2.29
2023-02-25T05:28:39.086Z,2.31
2023-02-25T05:31:08.337Z,2.34
2023-02-25T05:33:39.357Z,2.36
2023-02-25T05:36:07.830Z,2.39
2023-02-25T05:38:36.845Z,2.35
2023-02-25T05:41:06.988Z,2.36
2023-02-25T05:43:38.023Z,2.34
2023-02-25T05:46:11.563Z,2.30
2023-02-25T05:48:41.067Z,2.30
2023-02-25T05:51:14.012Z,2.29
2023-02-25T05:53:42.217Z,2.29
2023-02-25T05:56:13.410Z,2.27
2023-02-25T05:58:42.819Z,2.25
2023-02-25T06:01:13.157Z,2.27
2023-02-25T06:03:42.021Z,2.26
2023-02-25T06:06:12.964Z,2.27
2023-02-25T06:08:41.919Z,2.28
2023-02-25T06:11:10.139Z,2.25
2023-02-25T06:13:42.688Z,2.26
2023-02-25T06:16:10.908Z,2.24
2023-02-25T06:18:39.787Z,2.25
2023-02-25T06:21:09.692Z,2.23
2023-02-25T06:23:39.537Z,2.27
2023-02-25T06:26:08.937Z,2.29
2023-02-25T06:28:39.892Z,2.34
2023-02-25T06:31:10.873Z,2.29
2023-02-25T06:33:39.443Z,2.33
2023-02-25T06:36:09.145Z,2.31
2023-02-25T06:38:37.365Z,2.29
2023-02-25T06:41:07.560Z,2.33
2023-02-25T06:43:36.577Z,2.32
2023-02-25T06:46:12.170Z,2.32
2023-02-25T06:48:40.486Z,2.34
2023-02-25T06:51:09.690Z,2.31
2023-02-25T06:53:38.512Z,2.29
2023-02-25T06:56:08.445Z,2.28
2023-02-25T06:58:37.010Z,2.30
2023-02-25T07:01:07.410Z,2.32
2023-02-25T07:03:37.254Z,2.32
2023-02-25T07:06:05.836Z,2.35
2023-02-25T07:08:34.489Z,2.42
2023-02-25T07:11:14.897Z,2.42
2023-02-25T07:13:43.927Z,2.42
2023-02-25T07:16:12.263Z,2.41
2023-02-25T07:18:41.969Z,2.42
2023-02-25T07:21:12.318Z,2.44
2023-02-25T07:23:40.743Z,2.48
2023-02-25T07:26:10.190Z,2.47
2023-02-25T07:28:41.279Z,2.49
2023-02-25T07:31:12.694Z,2.52
2023-02-25T07:33:42.420Z,2.54
2023-02-25T07:36:11.128Z,2.58
2023-02-25T07:38:40.083Z,2.58
2023-02-25T07:41:08.836Z,2.62
2023-02-25T07:43:37.135Z,2.73
2023-02-25T07:46:05.728Z,2.69
2023-02-25T07:48:34.361Z,2.72
2023-02-25T07:51:08.904Z,2.73
2023-02-25T07:53:37.192Z,2.79
2023-02-25T07:56:07.074Z,2.81
2023-02-25T07:58:35.651Z,2.85
2023-02-25T08:01:08.974Z,2.92
2023-02-25T08:03:37.236Z,3.02
2023-02-25T08:06:10.124Z,3.05
2023-02-25T08:08:38.703Z,3.08
2023-02-25T08:11:07.593Z,3.08
2023-02-25T08:13:35.693Z,3.18
2023-02-25T08:16:05.698Z,3.14
2023-02-25T08:18:33.791Z,3.21
2023-02-25T08:21:02.973Z,3.31
2023-02-25T08:23:32.837Z,3.30
2023-02-25T08:26:01.627Z,3.33
2023-02-25T08:28:34.248Z,3.40
2023-02-25T08:31:02.602Z,3.49
2023-02-25T08:33:31.120Z,3.52
2023-02-25T08:36:09.664Z,3.53
2023-02-25T08:38:39.780Z,3.60
2023-02-25T08:41:08.833Z,3.60
2023-02-25T08:43:37.395Z,3.66
2023-02-25T08:46:06.476Z,3.61
2023-02-25T08:48:38.255Z,3.53
2023-02-25T08:51:09.188Z,3.62
2023-02-25T08:53:38.826Z,3.64
2023-02-25T08:56:08.943Z,3.60
2023-02-25T08:58:37.634Z,3.53
2023-02-25T09:01:09.220Z,3.55
2023-02-25T09:03:37.364Z,3.51
2023-02-25T09:06:05.956Z,3.54
2023-02-25T09:08:34.069Z,3.48
2023-02-25T09:11:05.769Z,3.32
2023-02-25T09:13:35.226Z,3.25
2023-02-25T09:16:03.449Z,3.25
2023-02-25T09:18:32.148Z,3.33
2023-02-25T09:21:00.161Z,3.35
2023-02-25T09:23:28.508Z,3.38
2023-02-25T09:25:56.535Z,3.47
2023-02-25T09:28:24.695Z,3.68
2023-02-25T09:30:54.177Z,3.98
2023-02-25T09:33:22.320Z,4.10
2023-02-25T09:35:53.876Z,4.11
2023-02-25T09:38:21.998Z,4.15
2023-02-25T09:40:50.856Z,4.27
2023-02-25T09:43:26.333Z,4.30
2023-02-25T09:46:05.541Z,4.35
2023-02-25T09:48:36.825Z,4.39
2023-02-25T09:51:12.632Z,4.51
2023-02-25T09:53:47.768Z,4.69
2023-02-25T09:56:19.321Z,4.79
2023-02-25T09:58:53.145Z,4.88
2023-02-25T10:01:34.334Z,4.78
2023-02-25T10:04:09.455Z,4.47
2023-02-25T10:06:43.655Z,4.29
2023-02-25T10:09:23.027Z,4.17
2023-02-25T10:11:54.761Z,4.13
2023-02-25T10:14:37.901Z,4.08
2023-02-25T10:17:19.002Z,4.33
2023-02-25T10:20:01.865Z,4.82
2023-02-25T10:22:38.058Z,5.22
2023-02-25T10:25:14.539Z,5.49
2023-02-25T10:27:49.282Z,5.76
2023-02-25T10:30:20.894Z,6.17
2023-02-25T10:32:50.822Z,6.25
2023-02-25T10:35:24.966Z,6.24
2023-02-25T10:37:53.892Z,6.74
2023-02-25T10:40:24.602Z,6.77
2023-02-25T10:42:55.339Z,6.50
2023-02-25T10:45:27.270Z,6.16
2023-02-25T10:48:07.252Z,5.86
2023-02-25T10:50:45.320Z,5.45
2023-02-25T10:53:16.278Z,4.82
2023-02-25T10:55:52.772Z,4.73
2023-02-25T10:58:28.124Z,4.36
2023-02-25T11:01:02.518Z,4.27
2023-02-25T11:03:34.626Z,4.39
2023-02-25T11:06:11.928Z,4.54
2023-02-25T11:08:40.066Z,4.60
2023-02-25T11:11:17.581Z,4.74
2023-02-25T11:14:00.041Z,4.79
2023-02-25T11:16:29.736Z,4.67
2023-02-25T11:19:02.437Z,4.66
2023-02-25T11:21:32.532Z,4.95
2023-02-25T11:24:06.725Z,5.30
2023-02-25T11:26:38.042Z,5.96
2023-02-25T11:29:11.380Z,6.62
2023-02-25T11:31:41.959Z,7.15
2023-02-25T11:34:20.900Z,7.17
2023-02-25T11:36:52.664Z,7.55
2023-02-25T11:39:22.697Z,7.59
2023-02-25T11:41:52.641Z,7.66
2023-02-25T11:44:24.452Z,7.81
2023-02-25T11:47:00.120Z,7.25
2023-02-25T11:49:42.306Z,6.91
2023-02-25T11:52:20.104Z,7.00
2023-02-25T11:54:56.294Z,7.18
2023-02-25T11:57:34.271Z,7.52
2023-02-25T12:00:19.363Z,7.95
2023-02-25T12:03:06.117Z,7.81
2023-02-25T12:06:05.095Z,7.33
2023-02-25T12:08:59.872Z,7.22
2023-02-25T12:12:02.197Z,7.28
2023-02-25T12:15:11.783Z,7.59
2023-02-25T12:18:17.925Z,8.01
2023-02-25T12:21:28.980Z,8.50
2023-02-25T12:24:30.332Z,8.44
2023-02-25T12:27:29.147Z,8.93
2023-02-25T12:30:27.159Z,8.62
2023-02-25T12:33:12.586Z,8.77
2023-02-25T12:36:03.795Z,8.62
2023-02-25T12:39:07.228Z,8.75
2023-02-25T12:41:47.359Z,8.50
2023-02-25T12:44:50.035Z,8.13
2023-02-25T12:47:30.272Z,8.09
2023-02-25T12:50:19.042Z,8.33
2023-02-25T12:53:07.569Z,8.33
2023-02-25T12:55:53.875Z,7.94
2023-02-25T12:58:34.697Z,7.99
2023-02-25T13:01:24.326Z,7.66
2023-02-25T13:04:15.386Z,7.50
2023-02-25T13:07:19.309Z,7.38
2023-02-25T13:10:06.754Z,7.68
2023-02-25T13:13:12.773Z,8.13
2023-02-25T13:15:58.433Z,8.27
2023-02-25T13:18:36.445Z,8.55
2023-02-25T13:21:27.648Z,8.87
2023-02-25T13:24:06.355Z,9.13
2023-02-25T13:27:03.708Z,8.29
2023-02-25T13:29:42.725Z,7.75
2023-02-25T13:32:21.656Z,7.63
2023-02-25T13:35:02.065Z,7.42
2023-02-25T13:37:46.121Z,7.42
2023-02-25T13:40:27.178Z,7.76
2023-02-25T13:43:39.040Z,7.78
2023-02-25T13:46:39.164Z,7.94
2023-02-25T13:49:28.399Z,7.84
2023-02-25T13:52:32.293Z,7.51
2023-02-25T13:55:34.940Z,7.68
2023-02-25T13:58:20.325Z,7.87
2023-02-25T14:01:15.517Z,7.52
2023-02-25T14:04:11.710Z,7.63
2023-02-25T14:06:54.854Z,7.35
2023-02-25T14:09:40.272Z,7.30
2023-02-25T14:12:19.405Z,6.94
2023-02-25T14:15:08.918Z,6.70
2023-02-25T14:18:10.896Z,6.76
2023-02-25T14:20:50.807Z,6.73
2023-02-25T14:23:34.356Z,6.50
2023-02-25T14:26:23.716Z,6.34
2023-02-25T14:29:07.569Z,6.30
2023-02-25T14:31:50.796Z,6.03
2023-02-25T14:34:44.719Z,5.92
2023-02-25T14:37:33.493Z,5.86
2023-02-25T14:40:18.301Z,5.90
2023-02-25T14:43:06.241Z,5.83
2023-02-25T14:45:39.181Z,5.78
2023-02-25T14:48:15.213Z,5.71
2023-02-25T14:50:48.363Z,5.57
2023-02-25T14:53:55.747Z,5.51
2023-02-25T14:56:49.559Z,5.33
2023-02-25T14:59:41.424Z,5.35
2023-02-25T15:02:31.008Z,5.35
2023-02-25T15:05:18.929Z,5.35
2023-02-25T15:08:15.227Z,5.32
2023-02-25T15:10:54.034Z,5.28
2023-02-25T15:13:49.364Z,5.15
2023-02-25T15:16:37.777Z,5.12
2023-02-25T15:19:36.159Z,4.98
2023-02-25T15:22:23.863Z,4.99
2023-02-25T15:25:13.247Z,4.97
2023-02-25T15:27:51.196Z,4.95
2023-02-25T15:30:21.384Z,4.94
2023-02-25T15:33:07.465Z,4.86
2023-02-25T15:36:00.466Z,4.81
2023-02-25T15:38:44.168Z,4.74
2023-02-25T15:42:00.292Z,4.68
2023-02-25T15:44:38.514Z,4.61
2023-02-25T15:47:30.493Z,4.55
2023-02-25T15:49:59.568Z,4.53
2023-02-25T15:52:52.782Z,4.42
2023-02-25T15:55:38.869Z,4.35
2023-02-25T15:58:40.210Z,4.33
2023-02-25T16:01:42.555Z,4.26
2023-02-25T16:04:59.405Z,4.23
2023-02-25T16:07:32.963Z,4.22
2023-02-25T16:10:08.348Z,4.23
2023-02-25T16:12:39.260Z,4.24
2023-02-25T16:15:12.388Z,4.22
2023-02-25T16:17:45.681Z,4.15
2023-02-25T16:20:19.927Z,4.08
2023-02-25T16:22:50.138Z,4.11
2023-02-25T16:25:29.523Z,4.05
2023-02-25T16:28:06.526Z,4.01
2023-02-25T16:30:41.572Z,3.94
2023-02-25T16:33:23.185Z,3.93
2023-02-25T16:36:02.627Z,3.89
2023-02-25T16:38:41.699Z,3.80
2023-02-25T16:41:10.222Z,3.75
2023-02-25T16:43:43.098Z,3.71
2023-02-25T16:46:13.421Z,3.68
2023-02-25T16:48:50.483Z,3.69
2023-02-25T16:51:24.462Z,3.65
2023-02-25T16:53:57.968Z,3.54
2023-02-25T16:56:29.830Z,3.52
2023-02-25T16:59:01.283Z,3.39
2023-02-25T17:01:33.801Z,3.42
2023-02-25T17:04:13.640Z,3.39
2023-02-25T17:06:41.819Z,3.31
2023-02-25T17:09:24.455Z,3.22
2023-02-25T17:11:56.148Z,3.23
2023-02-25T17:14:25.790Z,3.18
2023-02-25T17:16:54.634Z,3.15
2023-02-25T17:19:26.817Z,3.17
2023-02-25T17:21:57.089Z,3.06
2023-02-25T17:24:30.546Z,3.04
2023-02-25T17:26:58.946Z,3.01
2023-02-25T17:29:35.922Z,3.02
2023-02-25T17:32:19.506Z,2.87
2023-02-25T17:34:50.329Z,2.84
2023-02-25T17:37:19.754Z,2.73
2023-02-25T17:39:48.227Z,2.67
2023-02-25T17:42:29.334Z,2.61
2023-02-25T17:44:57.753Z,2.55
2023-02-25T17:47:28.914Z,2.65
2023-02-25T17:50:00.221Z,2.60
2023-02-25T17:52:31.735Z,2.46
2023-02-25T17:55:03.026Z,2.43
2023-02-25T17:57:33.232Z,2.44
2023-02-25T18:00:14.251Z,2.39
2023-02-25T18:02:44.251Z,2.43
2023-02-25T18:05:23.489Z,2.28
2023-02-25T18:08:11.792Z,2.18
2023-02-25T18:10:46.804Z,2.14
2023-02-25T18:13:25.703Z,2.13
2023-02-25T18:16:18.893Z,2.09
2023-02-25T18:18:51.583Z,2.05
2023-02-25T18:21:21.373Z,2.09
2023-02-25T18:23:51.814Z,2.07
2023-02-25T18:26:24.004Z,1.98
2023-02-25T18:28:53.041Z,1.97
2023-02-25T18:31:22.490Z,1.96
2023-02-25T18:33:50.994Z,1.93
2023-02-25T18:36:25.748Z,1.86
2023-02-25T18:38:55.864Z,1.77
2023-02-25T18:41:24.146Z,1.74
2023-02-25T18:43:55.194Z,1.74
2023-02-25T18:46:23.713Z,1.76
2023-02-25T18:48:51.955Z,1.64
2023-02-25T18:51:21.421Z,1.71
2023-02-25T18:53:49.532Z,1.66
2023-02-25T18:56:18.209Z,1.64
2023-02-25T18:58:46.452Z,1.60
2023-02-25T19:01:23.602Z,1.58
2023-02-25T19:03:53.637Z,1.49
2023-02-25T19:06:23.397Z,1.48
2023-02-25T19:08:51.706Z,1.46
2023-02-25T19:11:24.051Z,1.39
2023-02-25T19:13:52.773Z,1.38
2023-02-25T19:16:21.158Z,1.34
2023-02-25T19:18:49.187Z,1.33
2023-02-25T19:21:19.303Z,1.22
2023-02-25T19:23:51.623Z,1.22
2023-02-25T19:26:19.789Z,1.16
2023-02-25T19:28:47.817Z,1.09
2023-02-25T19:31:16.016Z,1.05
2023-02-25T19:33:44.169Z,1.03
2023-02-25T19:36:12.785Z,1.03
2023-02-25T19:38:43.692Z,1.00
2023-02-25T19:41:14.261Z,0.96
2023-02-25T19:43:42.363Z,0.93
2023-02-25T19:46:11.196Z,0.87
2023-02-25T19:48:42.375Z,0.87
2023-02-25T19:51:11.326Z,0.79
2023-02-25T19:53:39.447Z,0.82
2023-02-25T19:56:08.517Z,0.74
2023-02-25T19:58:37.954Z,0.71
2023-02-25T20:01:07.887Z,0.70
2023-02-25T20:03:36.849Z,0.66
2023-02-25T20:06:09.414Z,0.65
2023-02-25T20:08:39.636Z,0.60
2023-02-25T20:11:09.905Z,0.52
2023-02-25T20:13:39.707Z,0.52
2023-02-25T20:16:09.350Z,0.52
2023-02-25T20:18:39.884Z,0.49
2023-02-25T20:21:08.006Z,0.42
2023-02-25T20:23:37.026Z,0.41
2023-02-25T20:26:07.797Z,0.35
2023-02-25T20:28:36.016Z,0.34
2023-02-25T20:31:10.700Z,0.26
2023-02-25T20:33:39.428Z,0.25
2023-02-25T20:36:20.656Z,0.26
2023-02-25T20:39:01.196Z,0.28
2023-02-25T20:41:29.596Z,0.20
2023-02-25T20:43:57.880Z,0.19
2023-02-25T20:46:29.657Z,0.13
2023-02-25T20:48:57.946Z,0.11
2023-02-25T20:51:26.641Z,0.09
2023-02-25T20:53:55.489Z,0.08
2023-02-25T20:56:27.361Z,0.05
2023-02-25T20:58:55.853Z,-0.01
2023-02-25T21:01:28.620Z,-0.05
2023-02-25T21:03:56.843Z,-0.08
2023-02-25T21:06:26.804Z,-0.13
2023-02-25T21:08:56.344Z,-0.12
2023-02-25T21:11:25.533Z,-0.17
2023-02-25T21:13:54.358Z,-0.23
2023-02-25T21:16:24.191Z,-0.26
2023-02-25T21:18:53.904Z,-0.25
2023-02-25T21:21:26.847Z,-0.28
2023-02-25T21:23:54.987Z,-0.32
2023-02-25T21:26:23.352Z,-0.42
2023-02-25T21:28:54.408Z,-0.39
2023-02-25T21:31:22.564Z,-0.36
2023-02-25T21:33:50.764Z,-0.40
2023-02-25T21:36:20.242Z,-0.43
2023-02-25T21:38:48.383Z,-0.42
2023-02-25T21:41:17.511Z,-0.44
2023-02-25T21:43:45.667Z,-0.47
2023-02-25T21:46:16.357Z,-0.47
2023-02-25T21:48:47.513Z,-0.46
2023-02-25T21:51:18.655Z,-0.45
2023-02-25T21:53:48.543Z,-0.40
2023-02-25T21:56:18.525Z,-0.40
2023-02-25T21:58:47.210Z,-0.39
2023-02-25T22:01:17.412Z,-0.52
2023-02-25T22:03:46.139Z,-0.45
2023-02-25T22:06:15.311Z,-0.49
2023-02-25T22:08:45.589Z,-0.52
2023-02-25T22:11:16.955Z,-0.60
2023-02-25T22:13:45.100Z,-0.60
2023-02-25T22:16:14.958Z,-0.59
2023-02-25T22:18:43.129Z,-0.64
2023-02-25T22:21:13.534Z,-0.64
2023-02-25T22:23:43.508Z,-0.62
2023-02-25T22:26:13.555Z,-0.69
2023-02-25T22:28:44.015Z,-0.67
2023-02-25T22:31:13.286Z,-0.72
2023-02-25T22:33:41.986Z,-0.77
2023-02-25T22:36:11.098Z,-0.89
2023-02-25T22:38:41.475Z,-0.90
2023-02-25T22:41:13.641Z,-0.91
2023-02-25T22:43:43.405Z,-0.91
2023-02-25T22:46:13.581Z,-0.95
2023-02-25T22:48:43.645Z,-1.03
2023-02-25T22:51:15.162Z,-1.10
2023-02-25T22:53:43.228Z,-1.08
2023-02-25T22:56:13.806Z,-1.05
2023-02-25T22:58:43.819Z,-1.07
2023-02-25T23:01:13.540Z,-1.07
2023-02-25T23:03:43.763Z,-1.14
2023-02-25T23:06:13.134Z,-1.21
2023-02-25T23:08:41.525Z,-1.23
2023-02-25T23:11:11.509Z,-1.21
2023-02-25T23:13:45.963Z,-1.24
2023-02-25T23:16:16.323Z,-1.31
2023-02-25T23:18:44.909Z,-1.36
2023-02-25T23:21:18.919Z,-1.39
2023-02-25T23:23:48.308Z,-1.37
2023-02-25T23:26:18.667Z,-1.39
2023-02-25T23:28:47.387Z,-1.42
2023-02-25T23:31:24.388Z,-1.40
2023-02-25T23:33:55.946Z,-1.42
2023-02-25T23:36:24.731Z,-1.42
2023-02-25T23:38:54.429Z,-1.44
2023-02-25T23:41:22.717Z,-1.47
2023-02-25T23:43:53.827Z,-1.43
2023-02-25T23:46:25.092Z,-1.41
2023-02-25T23:48:55.781Z,-1.40
2023-02-25T23:51:24.285Z,-1.42
2023-02-25T23:53:53.651Z,-1.43
2023-02-25T23:56:21.807Z,-1.40
2023-02-25T23:58:50.610Z,-1.33
